sensor_id;sensor_type;location;lat;lon;timestamp;pressure;altitude;pressure_sealevel;temperature;humidity
84501;BME280;74725;44.210;17.906;2024-01-30T02:06:57;100177.22;;;-0.43;100.00
84501;BME280;74725;44.210;17.906;2024-01-30T05:23:19;100262.38;;;-1.40;100.00
84501;BME280;74725;44.210;17.906;2024-01-30T05:25:44;100266.38;;;-1.37;100.00
84501;BME280;74725;44.210;17.906;2024-01-30T05:28:10;100261.56;;;-1.40;100.00
84501;BME280;74725;44.210;17.906;2024-01-30T06:13:47;100254.81;;;-1.38;100.00
84501;BME280;74725;44.210;17.906;2024-01-30T06:16:13;100262.59;;;-1.36;100.00
84501;BME280;74725;44.210;17.906;2024-01-30T06:18:39;100268.47;;;-1.34;100.00
84501;BME280;74725;44.210;17.906;2024-01-30T06:21:05;100275.31;;;-1.42;100.00
84501;BME280;74725;44.210;17.906;2024-01-30T06:23:30;100278.56;;;-1.45;100.00
84501;BME280;74725;44.210;17.906;2024-01-30T06:25:56;100275.09;;;-1.45;100.00
84501;BME280;74725;44.210;17.906;2024-01-30T06:28:22;100282.06;;;-1.44;100.00
84501;BME280;74725;44.210;17.906;2024-01-30T06:30:47;100280.13;;;-1.39;100.00
84501;BME280;74725;44.210;17.906;2024-01-30T06:33:13;100285.88;;;-1.32;100.00
84501;BME280;74725;44.210;17.906;2024-01-30T06:35:40;100277.34;;;-1.34;100.00
84501;BME280;74725;44.210;17.906;2024-01-30T06:38:06;100279.81;;;-1.37;100.00
84501;BME280;74725;44.210;17.906;2024-01-30T06:40:31;100289.03;;;-1.43;100.00
84501;BME280;74725;44.210;17.906;2024-01-30T06:42:57;100301.44;;;-1.29;100.00
84501;BME280;74725;44.210;17.906;2024-01-30T06:45:23;100290.25;;;-1.36;100.00
84501;BME280;74725;44.210;17.906;2024-01-30T06:47:55;100302.44;;;-1.25;100.00
84501;BME280;74725;44.210;17.906;2024-01-30T06:50:21;100300.94;;;-1.12;100.00
84501;BME280;74725;44.210;17.906;2024-01-30T06:52:47;100299.56;;;-0.95;100.00
84501;BME280;74725;44.210;17.906;2024-01-30T06:55:12;100306.38;;;-0.84;100.00
84501;BME280;74725;44.210;17.906;2024-01-30T06:57:38;100301.78;;;-0.84;100.00
84501;BME280;74725;44.210;17.906;2024-01-30T07:00:05;100302.63;;;-0.69;100.00
84501;BME280;74725;44.210;17.906;2024-01-30T07:02:31;100307.38;;;-0.80;98.78
84501;BME280;74725;44.210;17.906;2024-01-30T07:04:57;100302.13;;;-0.71;98.45
84501;BME280;74725;44.210;17.906;2024-01-30T07:07:23;100305.81;;;-0.67;97.59
84501;BME280;74725;44.210;17.906;2024-01-30T07:09:51;100306.41;;;-0.70;97.83
84501;BME280;74725;44.210;17.906;2024-01-30T07:12:22;100314.50;;;-0.57;97.21
84501;BME280;74725;44.210;17.906;2024-01-30T07:14:54;100310.44;;;-0.40;97.47
84501;BME280;74725;44.210;17.906;2024-01-30T07:17:22;100301.97;;;-0.34;96.64
84501;BME280;74725;44.210;17.906;2024-01-30T07:19:48;100316.31;;;-0.38;97.03
84501;BME280;74725;44.210;17.906;2024-01-30T07:22:13;100317.91;;;-0.10;96.39
84501;BME280;74725;44.210;17.906;2024-01-30T07:24:43;100323.69;;;-0.03;94.62
84501;BME280;74725;44.210;17.906;2024-01-30T07:27:14;100311.03;;;0.12;94.66
84501;BME280;74725;44.210;17.906;2024-01-30T07:29:40;100332.50;;;-0.11;93.44
84501;BME280;74725;44.210;17.906;2024-01-30T07:32:05;100324.00;;;-0.04;93.32
84501;BME280;74725;44.210;17.906;2024-01-30T07:34:36;100324.91;;;0.05;92.96
84501;BME280;74725;44.210;17.906;2024-01-30T07:37:03;100320.38;;;0.14;92.98
84501;BME280;74725;44.210;17.906;2024-01-30T07:39:31;100321.88;;;0.20;93.15
84501;BME280;74725;44.210;17.906;2024-01-30T07:41:57;100319.47;;;0.33;93.32
84501;BME280;74725;44.210;17.906;2024-01-30T07:44:32;100318.53;;;0.51;93.59
84501;BME280;74725;44.210;17.906;2024-01-30T07:47:00;100317.09;;;0.54;94.76
84501;BME280;74725;44.210;17.906;2024-01-30T07:49:31;100318.78;;;0.63;93.98
84501;BME280;74725;44.210;17.906;2024-01-30T07:52:16;100323.09;;;0.87;94.29
84501;BME280;74725;44.210;17.906;2024-01-30T07:55:03;100307.53;;;1.06;93.12
84501;BME280;74725;44.210;17.906;2024-01-30T07:57:32;100318.00;;;1.08;92.99
84501;BME280;74725;44.210;17.906;2024-01-30T08:00:01;100309.03;;;1.21;92.83
84501;BME280;74725;44.210;17.906;2024-01-30T08:02:33;100308.59;;;1.28;92.43
84501;BME280;74725;44.210;17.906;2024-01-30T08:04:58;100307.69;;;1.32;92.38
84501;BME280;74725;44.210;17.906;2024-01-30T08:07:24;100306.88;;;1.32;91.85
84501;BME280;74725;44.210;17.906;2024-01-30T08:09:56;100315.66;;;1.46;91.79
84501;BME280;74725;44.210;17.906;2024-01-30T08:12:26;100315.06;;;1.49;92.49
84501;BME280;74725;44.210;17.906;2024-01-30T08:14:53;100306.56;;;1.64;91.21
84501;BME280;74725;44.210;17.906;2024-01-30T08:17:21;100311.19;;;1.73;91.49
84501;BME280;74725;44.210;17.906;2024-01-30T08:19:47;100300.91;;;1.83;90.47
84501;BME280;74725;44.210;17.906;2024-01-30T08:22:13;100298.38;;;1.95;90.08
84501;BME280;74725;44.210;17.906;2024-01-30T08:24:41;100300.75;;;1.88;89.23
84501;BME280;74725;44.210;17.906;2024-01-30T08:27:09;100314.94;;;1.94;89.45
84501;BME280;74725;44.210;17.906;2024-01-30T08:29:41;100305.72;;;2.04;89.19
84501;BME280;74725;44.210;17.906;2024-01-30T08:32:19;100298.28;;;2.09;87.82
84501;BME280;74725;44.210;17.906;2024-01-30T08:34:47;100302.88;;;2.09;88.39
84501;BME280;74725;44.210;17.906;2024-01-30T08:37:24;100296.84;;;2.20;87.89
84501;BME280;74725;44.210;17.906;2024-01-30T08:39:55;100305.88;;;1.99;89.39
84501;BME280;74725;44.210;17.906;2024-01-30T08:42:24;100299.06;;;2.10;89.23
84501;BME280;74725;44.210;17.906;2024-01-30T08:44:55;100296.22;;;2.15;88.58
84501;BME280;74725;44.210;17.906;2024-01-30T08:47:26;100285.72;;;2.22;88.25
84501;BME280;74725;44.210;17.906;2024-01-30T08:52:33;100279.25;;;2.40;87.53
84501;BME280;74725;44.210;17.906;2024-01-30T08:55:12;100278.59;;;2.52;86.89
84501;BME280;74725;44.210;17.906;2024-01-30T08:57:38;100288.13;;;2.41;87.61
84501;BME280;74725;44.210;17.906;2024-01-30T09:00:11;100282.09;;;2.61;87.63
84501;BME280;74725;44.210;17.906;2024-01-30T09:03:01;100269.84;;;2.64;88.65
84501;BME280;74725;44.210;17.906;2024-01-30T09:05:46;100271.25;;;2.87;87.00
84501;BME280;74725;44.210;17.906;2024-01-30T09:08:25;100273.78;;;2.92;86.49
84501;BME280;74725;44.210;17.906;2024-01-30T09:10:55;100286.84;;;2.99;86.68
84501;BME280;74725;44.210;17.906;2024-01-30T09:13:25;100282.06;;;2.96;87.24
84501;BME280;74725;44.210;17.906;2024-01-30T09:19:15;100273.00;;;2.92;86.99
84501;BME280;74725;44.210;17.906;2024-01-30T09:21:53;100273.47;;;3.03;87.01
84501;BME280;74725;44.210;17.906;2024-01-30T09:24:21;100268.03;;;3.11;86.61
84501;BME280;74725;44.210;17.906;2024-01-30T09:27:04;100255.25;;;3.29;86.41
84501;BME280;74725;44.210;17.906;2024-01-30T09:29:31;100258.66;;;3.47;86.17
84501;BME280;74725;44.210;17.906;2024-01-30T09:32:00;100255.75;;;3.61;85.23
84501;BME280;74725;44.210;17.906;2024-01-30T09:34:25;100252.75;;;3.54;85.85
84501;BME280;74725;44.210;17.906;2024-01-30T09:36:51;100253.00;;;3.70;85.15
84501;BME280;74725;44.210;17.906;2024-01-30T09:39:18;100242.47;;;3.68;84.88
84501;BME280;74725;44.210;17.906;2024-01-30T09:41:49;100244.50;;;3.80;85.05
84501;BME280;74725;44.210;17.906;2024-01-30T09:44:35;100235.19;;;3.89;84.33
84501;BME280;74725;44.210;17.906;2024-01-30T09:47:02;100242.03;;;3.87;83.72
84501;BME280;74725;44.210;17.906;2024-01-30T09:49:38;100239.75;;;3.98;83.58
84501;BME280;74725;44.210;17.906;2024-01-30T09:52:06;100241.22;;;4.16;82.87
84501;BME280;74725;44.210;17.906;2024-01-30T09:54:41;100238.16;;;4.17;83.00
84501;BME280;74725;44.210;17.906;2024-01-30T09:57:07;100233.09;;;4.16;83.32
84501;BME280;74725;44.210;17.906;2024-01-30T09:59:36;100223.50;;;4.19;82.88
84501;BME280;74725;44.210;17.906;2024-01-30T10:02:01;100219.28;;;4.30;83.27
84501;BME280;74725;44.210;17.906;2024-01-30T10:04:31;100215.28;;;4.48;83.08
84501;BME280;74725;44.210;17.906;2024-01-30T10:06:57;100213.13;;;4.41;83.38
84501;BME280;74725;44.210;17.906;2024-01-30T10:09:24;100212.94;;;4.59;82.84
84501;BME280;74725;44.210;17.906;2024-01-30T10:11:51;100200.66;;;4.61;82.19
84501;BME280;74725;44.210;17.906;2024-01-30T10:14:16;100193.88;;;4.68;80.97
84501;BME280;74725;44.210;17.906;2024-01-30T10:16:42;100197.53;;;4.84;81.46
84501;BME280;74725;44.210;17.906;2024-01-30T10:19:08;100197.78;;;4.91;81.62
84501;BME280;74725;44.210;17.906;2024-01-30T10:21:34;100190.53;;;4.95;81.09
84501;BME280;74725;44.210;17.906;2024-01-30T10:24:00;100197.00;;;5.03;80.84
84501;BME280;74725;44.210;17.906;2024-01-30T10:26:26;100192.72;;;5.14;80.01
84501;BME280;74725;44.210;17.906;2024-01-30T10:28:55;100189.19;;;5.01;80.36
84501;BME280;74725;44.210;17.906;2024-01-30T10:31:21;100184.69;;;5.18;80.16
84501;BME280;74725;44.210;17.906;2024-01-30T10:33:48;100186.28;;;5.19;79.89
84501;BME280;74725;44.210;17.906;2024-01-30T10:36:14;100183.56;;;5.19;80.09
84501;BME280;74725;44.210;17.906;2024-01-30T10:38:42;100175.31;;;5.39;78.76
84501;BME280;74725;44.210;17.906;2024-01-30T10:41:10;100165.91;;;5.49;77.90
84501;BME280;74725;44.210;17.906;2024-01-30T10:43:41;100172.72;;;5.55;78.38
84501;BME280;74725;44.210;17.906;2024-01-30T10:46:17;100158.41;;;5.71;77.28
84501;BME280;74725;44.210;17.906;2024-01-30T10:48:54;100163.75;;;5.55;77.38
84501;BME280;74725;44.210;17.906;2024-01-30T10:51:28;100158.84;;;5.73;75.52
84501;BME280;74725;44.210;17.906;2024-01-30T10:53:56;100152.38;;;5.89;74.90
84501;BME280;74725;44.210;17.906;2024-01-30T10:56:23;100141.84;;;6.00;74.66
84501;BME280;74725;44.210;17.906;2024-01-30T10:58:51;100148.63;;;6.06;73.95
84501;BME280;74725;44.210;17.906;2024-01-30T11:01:24;100144.16;;;6.14;73.26
84501;BME280;74725;44.210;17.906;2024-01-30T11:03:53;100136.22;;;6.21;72.83
84501;BME280;74725;44.210;17.906;2024-01-30T11:06:24;100138.97;;;6.09;73.68
84501;BME280;74725;44.210;17.906;2024-01-30T11:09:06;100130.03;;;6.08;74.35
84501;BME280;74725;44.210;17.906;2024-01-30T11:11:55;100121.81;;;6.21;73.54
84501;BME280;74725;44.210;17.906;2024-01-30T11:14:25;100113.75;;;6.24;73.02
84501;BME280;74725;44.210;17.906;2024-01-30T11:16:51;100109.63;;;6.30;72.58
84501;BME280;74725;44.210;17.906;2024-01-30T11:19:26;100103.00;;;6.44;73.48
84501;BME280;74725;44.210;17.906;2024-01-30T11:21:53;100104.19;;;6.58;72.31
84501;BME280;74725;44.210;17.906;2024-01-30T11:24:20;100105.94;;;6.67;72.96
84501;BME280;74725;44.210;17.906;2024-01-30T11:26:49;100098.19;;;6.84;72.03
84501;BME280;74725;44.210;17.906;2024-01-30T11:29:29;100096.53;;;6.96;71.64
84501;BME280;74725;44.210;17.906;2024-01-30T11:31:57;100098.28;;;7.04;71.69
84501;BME280;74725;44.210;17.906;2024-01-30T11:34:23;100090.56;;;7.06;71.42
84501;BME280;74725;44.210;17.906;2024-01-30T11:37:03;100076.25;;;7.09;71.55
84501;BME280;74725;44.210;17.906;2024-01-30T11:39:32;100083.06;;;7.19;70.16
84501;BME280;74725;44.210;17.906;2024-01-30T11:41:58;100081.00;;;7.31;70.81
84501;BME280;74725;44.210;17.906;2024-01-30T11:44:24;100074.19;;;7.22;69.03
84501;BME280;74725;44.210;17.906;2024-01-30T11:46:51;100079.69;;;7.41;69.22
84501;BME280;74725;44.210;17.906;2024-01-30T11:49:17;100076.06;;;7.53;68.47
84501;BME280;74725;44.210;17.906;2024-01-30T11:51:45;100065.56;;;7.55;68.47
84501;BME280;74725;44.210;17.906;2024-01-30T11:54:11;100069.19;;;7.59;67.59
84501;BME280;74725;44.210;17.906;2024-01-30T11:56:37;100065.31;;;7.60;67.86
84501;BME280;74725;44.210;17.906;2024-01-30T11:59:04;100062.94;;;7.78;68.35
84501;BME280;74725;44.210;17.906;2024-01-30T12:01:31;100065.00;;;7.84;68.38
84501;BME280;74725;44.210;17.906;2024-01-30T12:03:59;100049.16;;;7.90;67.45
84501;BME280;74725;44.210;17.906;2024-01-30T12:06:25;100046.84;;;7.92;67.45
84501;BME280;74725;44.210;17.906;2024-01-30T12:09:01;100046.94;;;7.96;66.61
84501;BME280;74725;44.210;17.906;2024-01-30T12:11:47;100044.91;;;7.93;66.87
84501;BME280;74725;44.210;17.906;2024-01-30T12:14:14;100036.47;;;7.98;67.42
84501;BME280;74725;44.210;17.906;2024-01-30T12:16:49;100042.94;;;8.13;66.74
84501;BME280;74725;44.210;17.906;2024-01-30T12:19:42;100026.94;;;8.11;66.41
84501;BME280;74725;44.210;17.906;2024-01-30T12:22:11;100021.91;;;8.32;64.82
84501;BME280;74725;44.210;17.906;2024-01-30T12:24:38;100008.75;;;8.38;64.59
84501;BME280;74725;44.210;17.906;2024-01-30T12:27:06;100015.44;;;8.41;64.31
84501;BME280;74725;44.210;17.906;2024-01-30T12:29:42;100014.69;;;8.44;65.88
84501;BME280;74725;44.210;17.906;2024-01-30T12:32:22;100005.56;;;8.59;64.57
84501;BME280;74725;44.210;17.906;2024-01-30T12:34:47;100013.94;;;8.70;63.51
84501;BME280;74725;44.210;17.906;2024-01-30T12:37:37;100000.56;;;8.61;64.21
84501;BME280;74725;44.210;17.906;2024-01-30T12:40:08;99996.84;;;8.73;63.60
84501;BME280;74725;44.210;17.906;2024-01-30T12:42:37;99984.44;;;8.79;62.40
84501;BME280;74725;44.210;17.906;2024-01-30T12:45:06;99995.31;;;8.75;63.37
84501;BME280;74725;44.210;17.906;2024-01-30T12:47:33;99989.25;;;8.89;62.46
84501;BME280;74725;44.210;17.906;2024-01-30T12:50:27;99976.09;;;8.95;62.15
84501;BME280;74725;44.210;17.906;2024-01-30T12:53:16;99979.72;;;9.02;62.52
84501;BME280;74725;44.210;17.906;2024-01-30T12:55:41;99972.31;;;9.03;62.25
84501;BME280;74725;44.210;17.906;2024-01-30T12:58:07;99973.28;;;9.18;60.78
84501;BME280;74725;44.210;17.906;2024-01-30T13:00:35;99961.53;;;9.17;61.83
84501;BME280;74725;44.210;17.906;2024-01-30T13:03:01;99960.03;;;9.20;59.98
84501;BME280;74725;44.210;17.906;2024-01-30T13:05:30;99970.63;;;9.25;59.43
84501;BME280;74725;44.210;17.906;2024-01-30T13:07:55;99964.91;;;9.34;58.64
84501;BME280;74725;44.210;17.906;2024-01-30T13:10:23;99956.31;;;9.35;59.12
84501;BME280;74725;44.210;17.906;2024-01-30T13:12:48;99957.53;;;9.38;59.81
84501;BME280;74725;44.210;17.906;2024-01-30T13:15:14;99964.66;;;9.46;60.63
84501;BME280;74725;44.210;17.906;2024-01-30T13:17:40;99958.75;;;9.44;59.82
84501;BME280;74725;44.210;17.906;2024-01-30T13:20:08;99956.41;;;9.42;59.71
84501;BME280;74725;44.210;17.906;2024-01-30T13:22:34;99952.94;;;9.45;58.45
84501;BME280;74725;44.210;17.906;2024-01-30T13:24:59;99941.22;;;9.45;58.59
84501;BME280;74725;44.210;17.906;2024-01-30T13:27:25;99951.50;;;9.59;58.33
84501;BME280;74725;44.210;17.906;2024-01-30T13:29:50;99940.97;;;9.57;58.55
84501;BME280;74725;44.210;17.906;2024-01-30T13:32:16;99939.38;;;9.56;57.62
84501;BME280;74725;44.210;17.906;2024-01-30T13:34:45;99939.78;;;9.58;57.94
84501;BME280;74725;44.210;17.906;2024-01-30T13:37:11;99940.97;;;9.57;57.84
84501;BME280;74725;44.210;17.906;2024-01-30T13:39:36;99937.00;;;9.54;56.60
84501;BME280;74725;44.210;17.906;2024-01-30T13:42:02;99936.28;;;9.58;57.04
84501;BME280;74725;44.210;17.906;2024-01-30T13:44:28;99933.59;;;9.61;56.32
84501;BME280;74725;44.210;17.906;2024-01-30T13:46:53;99930.38;;;9.55;57.54
84501;BME280;74725;44.210;17.906;2024-01-30T13:49:20;99930.22;;;9.41;59.04
84501;BME280;74725;44.210;17.906;2024-01-30T13:51:45;99933.16;;;9.59;58.34
84501;BME280;74725;44.210;17.906;2024-01-30T13:54:11;99930.47;;;9.63;58.56
84501;BME280;74725;44.210;17.906;2024-01-30T13:56:40;99919.56;;;9.66;58.54
84501;BME280;74725;44.210;17.906;2024-01-30T13:59:05;99929.59;;;9.55;59.33
84501;BME280;74725;44.210;17.906;2024-01-30T14:01:31;99926.69;;;9.41;59.33
84501;BME280;74725;44.210;17.906;2024-01-30T14:03:57;99920.91;;;9.46;59.77
84501;BME280;74725;44.210;17.906;2024-01-30T14:06:23;99926.78;;;9.48;58.01
84501;BME280;74725;44.210;17.906;2024-01-30T14:08:48;99923.34;;;9.54;57.51
84501;BME280;74725;44.210;17.906;2024-01-30T14:11:15;99914.75;;;9.52;57.27
84501;BME280;74725;44.210;17.906;2024-01-30T14:13:41;99918.78;;;9.66;57.10
84501;BME280;74725;44.210;17.906;2024-01-30T14:16:06;99918.31;;;9.57;56.82
84501;BME280;74725;44.210;17.906;2024-01-30T14:18:32;99913.50;;;9.46;57.11
84501;BME280;74725;44.210;17.906;2024-01-30T14:20:58;99921.03;;;9.57;56.79
84501;BME280;74725;44.210;17.906;2024-01-30T14:23:24;99917.34;;;9.42;58.20
84501;BME280;74725;44.210;17.906;2024-01-30T14:25:53;99920.09;;;9.42;58.05
84501;BME280;74725;44.210;17.906;2024-01-30T14:28:19;99910.63;;;9.36;59.25
84501;BME280;74725;44.210;17.906;2024-01-30T14:30:45;99918.03;;;9.35;59.82
84501;BME280;74725;44.210;17.906;2024-01-30T14:33:10;99901.06;;;9.19;60.78
84501;BME280;74725;44.210;17.906;2024-01-30T14:35:37;99909.25;;;9.19;60.78
84501;BME280;74725;44.210;17.906;2024-01-30T14:38:02;99915.03;;;9.14;61.95
84501;BME280;74725;44.210;17.906;2024-01-30T14:40:30;99912.59;;;9.05;62.79
84501;BME280;74725;44.210;17.906;2024-01-30T14:42:56;99916.81;;;8.99;63.35
84501;BME280;74725;44.210;17.906;2024-01-30T14:45:22;99910.00;;;8.86;64.22
84501;BME280;74725;44.210;17.906;2024-01-30T14:47:48;99921.50;;;8.72;65.26
84501;BME280;74725;44.210;17.906;2024-01-30T14:50:22;99910.66;;;8.75;66.18
84501;BME280;74725;44.210;17.906;2024-01-30T14:52:47;99914.16;;;8.76;66.12
84501;BME280;74725;44.210;17.906;2024-01-30T14:55:13;99913.63;;;8.67;66.71
84501;BME280;74725;44.210;17.906;2024-01-30T14:57:38;99914.88;;;8.46;67.55
84501;BME280;74725;44.210;17.906;2024-01-30T15:00:08;99905.00;;;8.38;68.35
84501;BME280;74725;44.210;17.906;2024-01-30T15:43:04;99928.50;;;6.29;75.60
84501;BME280;74725;44.210;17.906;2024-01-30T15:45:29;99920.25;;;6.10;76.08
84501;BME280;74725;44.210;17.906;2024-01-30T15:47:56;99926.09;;;5.96;76.32
84501;BME280;74725;44.210;17.906;2024-01-30T15:50:23;99943.34;;;5.88;76.88
84501;BME280;74725;44.210;17.906;2024-01-30T16:33:18;99964.66;;;4.53;82.52
84501;BME280;74725;44.210;17.906;2024-01-30T16:35:43;99965.56;;;4.45;82.82
84501;BME280;74725;44.210;17.906;2024-01-30T16:38:09;99958.78;;;4.38;82.62
84501;BME280;74725;44.210;17.906;2024-01-30T16:40:35;99972.66;;;4.37;82.79
84501;BME280;74725;44.210;17.906;2024-01-30T17:15:24;99979.22;;;3.78;85.34
84501;BME280;74725;44.210;17.906;2024-01-30T17:17:49;99986.34;;;3.83;84.78
84501;BME280;74725;44.210;17.906;2024-01-30T17:20:15;99976.38;;;3.75;84.99
84501;BME280;74725;44.210;17.906;2024-01-30T17:25:22;99974.13;;;3.64;85.33
84501;BME280;74725;44.210;17.906;2024-01-30T17:27:48;99967.31;;;3.58;85.85
84501;BME280;74725;44.210;17.906;2024-01-30T17:30:20;99973.59;;;3.50;86.54
84501;BME280;74725;44.210;17.906;2024-01-30T17:43:33;99976.44;;;3.54;86.28
84501;BME280;74725;44.210;17.906;2024-01-30T17:45:58;99987.78;;;3.47;86.42
84501;BME280;74725;44.210;17.906;2024-01-30T17:48:25;99988.13;;;3.25;87.93
84501;BME280;74725;44.210;17.906;2024-01-30T17:50:51;99991.09;;;3.32;87.36
84501;BME280;74725;44.210;17.906;2024-01-30T17:55:58;99994.72;;;3.36;87.48
84501;BME280;74725;44.210;17.906;2024-01-30T17:58:30;99996.38;;;3.28;87.45
84501;BME280;74725;44.210;17.906;2024-01-30T18:00:56;100000.34;;;3.31;87.33
84501;BME280;74725;44.210;17.906;2024-01-30T18:06:04;99996.44;;;3.19;88.30
84501;BME280;74725;44.210;17.906;2024-01-30T18:08:31;100003.13;;;3.22;90.04
84501;BME280;74725;44.210;17.906;2024-01-30T18:10:58;100005.97;;;3.26;87.70
84501;BME280;74725;44.210;17.906;2024-01-30T18:56:35;100013.94;;;2.72;91.77
84501;BME280;74725;44.210;17.906;2024-01-30T18:59:00;100009.50;;;2.67;90.76
84501;BME280;74725;44.210;17.906;2024-01-30T19:01:26;100013.66;;;2.64;90.23
84501;BME280;74725;44.210;17.906;2024-01-30T20:07:07;100012.72;;;2.05;93.34
84501;BME280;74725;44.210;17.906;2024-01-30T20:09:33;100018.81;;;2.02;93.29
84501;BME280;74725;44.210;17.906;2024-01-30T20:36:17;100016.75;;;1.73;94.52
84501;BME280;74725;44.210;17.906;2024-01-30T20:38:44;100021.72;;;1.70;94.96
84501;BME280;74725;44.210;17.906;2024-01-30T20:41:10;100014.84;;;1.73;94.51
84501;BME280;74725;44.210;17.906;2024-01-30T23:47:46;100020.53;;;0.14;100.00
84501;BME280;74725;44.210;17.906;2024-01-30T23:50:12;100013.25;;;0.14;99.87
